createdAt,value
2023-05-05T00:00:00.032Z,10.97
2023-05-05T00:00:59.984Z,10.97
2023-05-05T00:02:00.028Z,10.96
2023-05-05T00:03:00.093Z,10.96
2023-05-05T00:04:00.046Z,10.93
2023-05-05T00:04:59.952Z,10.92
2023-05-05T00:05:59.912Z,10.90
2023-05-05T00:06:59.904Z,10.90
2023-05-05T00:07:59.898Z,10.87
2023-05-05T00:08:59.876Z,10.84
2023-05-05T00:09:59.877Z,10.84
2023-05-05T00:10:59.854Z,10.82
2023-05-05T00:11:59.848Z,10.81
2023-05-05T00:12:59.872Z,10.81
2023-05-05T00:13:59.816Z,10.78
2023-05-05T00:14:59.825Z,10.78
2023-05-05T00:15:59.784Z,10.76
2023-05-05T00:16:59.825Z,10.74
2023-05-05T00:17:59.816Z,10.74
2023-05-05T00:18:59.761Z,10.72
2023-05-05T00:19:59.740Z,10.71
2023-05-05T00:20:59.772Z,10.71
2023-05-05T00:21:59.746Z,10.71
2023-05-05T00:22:59.694Z,10.69
2023-05-05T00:23:59.683Z,10.67
2023-05-05T00:24:59.729Z,10.63
2023-05-05T00:25:59.669Z,10.61
2023-05-05T00:26:59.674Z,10.63
2023-05-05T00:27:59.656Z,10.61
2023-05-05T00:28:59.619Z,10.59
2023-05-05T00:29:59.660Z,10.59
2023-05-05T00:30:59.698Z,10.59
2023-05-05T00:31:59.594Z,10.56
2023-05-05T00:32:59.626Z,10.54
2023-05-05T00:33:59.550Z,10.53
2023-05-05T00:34:59.568Z,10.49
2023-05-05T00:35:59.566Z,10.49
2023-05-05T00:36:59.546Z,10.46
2023-05-05T00:37:59.515Z,10.46
2023-05-05T00:38:59.524Z,10.44
2023-05-05T00:39:59.564Z,10.42
2023-05-05T00:40:59.473Z,10.44
2023-05-05T00:41:59.493Z,10.41
2023-05-05T00:42:59.486Z,10.40
2023-05-05T00:43:59.424Z,10.38
2023-05-05T00:44:59.512Z,10.35
2023-05-05T00:45:59.448Z,10.35
2023-05-05T00:46:59.473Z,10.33
2023-05-05T00:47:59.411Z,10.30
2023-05-05T00:48:59.493Z,10.33
2023-05-05T00:49:59.456Z,10.30
2023-05-05T00:50:59.390Z,10.30
2023-05-05T00:51:59.351Z,10.26
2023-05-05T00:52:59.333Z,10.25
2023-05-05T00:53:59.361Z,10.23
2023-05-05T00:54:59.316Z,10.22
2023-05-05T00:55:59.271Z,10.20
2023-05-05T00:56:59.313Z,10.20
2023-05-05T00:57:59.314Z,10.19
2023-05-05T00:58:59.248Z,10.16
2023-05-05T00:59:59.214Z,10.15
2023-05-05T01:00:59.204Z,10.13
2023-05-05T01:01:59.244Z,10.12
2023-05-05T01:02:59.333Z,10.12
2023-05-05T01:03:59.334Z,10.10
2023-05-05T01:04:59.174Z,10.09
2023-05-05T01:05:59.139Z,10.07
2023-05-05T01:06:59.146Z,10.05
2023-05-05T01:07:59.167Z,10.04
2023-05-05T01:08:59.103Z,10.02
2023-05-05T01:10:15.120Z,10.02
2023-05-05T01:11:00.095Z,10.02
2023-05-05T01:11:59.056Z,10.01
2023-05-05T01:12:59.123Z,10.01
2023-05-05T01:13:59.025Z,9.98
2023-05-05T01:14:59.023Z,9.98
2023-05-05T01:15:59.043Z,9.97
2023-05-05T01:16:59.026Z,9.95
2023-05-05T01:17:59.019Z,9.98
2023-05-05T01:18:58.970Z,9.95
2023-05-05T01:19:58.951Z,9.94
2023-05-05T01:20:58.950Z,9.94
2023-05-05T01:21:58.973Z,9.91
2023-05-05T01:22:58.921Z,9.87
2023-05-05T01:23:58.932Z,9.87
2023-05-05T01:24:58.895Z,9.84
2023-05-05T01:25:58.884Z,9.87
2023-05-05T01:26:58.877Z,9.84
2023-05-05T01:27:58.849Z,9.84
2023-05-05T01:28:58.889Z,9.84
2023-05-05T01:29:58.833Z,9.83
2023-05-05T01:30:58.848Z,9.82
2023-05-05T01:31:58.846Z,9.80
2023-05-05T01:32:58.810Z,9.82
2023-05-05T01:33:58.780Z,9.80
2023-05-05T01:34:58.790Z,9.79
2023-05-05T01:35:58.777Z,9.77
2023-05-05T01:36:58.765Z,9.77
2023-05-05T01:37:58.753Z,9.77
2023-05-05T01:38:58.729Z,9.74
2023-05-05T01:39:58.699Z,9.74
2023-05-05T01:40:58.718Z,9.73
2023-05-05T01:41:58.689Z,9.73
2023-05-05T01:42:58.699Z,9.72
2023-05-05T01:43:58.675Z,9.69
2023-05-05T01:44:58.682Z,9.69
2023-05-05T01:45:58.702Z,9.68
2023-05-05T01:46:58.625Z,9.68
2023-05-05T01:47:58.681Z,9.68
2023-05-05T01:48:58.597Z,9.65
2023-05-05T01:49:58.593Z,9.65
2023-05-05T01:50:58.572Z,9.64
2023-05-05T01:51:58.575Z,9.62
2023-05-05T01:52:58.545Z,9.64
2023-05-05T01:53:58.572Z,9.62
2023-05-05T01:54:58.531Z,9.62
2023-05-05T01:55:58.527Z,9.61
2023-05-05T01:56:58.512Z,9.59
2023-05-05T01:57:58.473Z,9.59
2023-05-05T01:58:58.484Z,9.59
2023-05-05T01:59:58.464Z,9.58
2023-05-05T02:00:58.455Z,9.58
2023-05-05T02:01:58.429Z,9.56
2023-05-05T02:02:58.486Z,9.58
2023-05-05T02:03:58.452Z,9.55
2023-05-05T02:04:58.399Z,9.55
2023-05-05T02:05:58.377Z,9.54
2023-05-05T02:06:58.355Z,9.51
2023-05-05T02:07:58.366Z,9.51
2023-05-05T02:08:58.371Z,9.50
2023-05-05T02:09:58.315Z,9.48
2023-05-05T02:10:58.323Z,9.47
2023-05-05T02:11:58.306Z,9.47
2023-05-05T02:12:58.333Z,9.47
2023-05-05T02:13:58.285Z,9.46
2023-05-05T02:14:58.269Z,9.44
2023-05-05T02:15:58.280Z,9.43
2023-05-05T02:16:58.245Z,9.43
2023-05-05T02:17:58.246Z,9.43
2023-05-05T02:18:58.214Z,9.41
2023-05-05T02:19:58.200Z,9.41
2023-05-05T02:20:58.207Z,9.41
2023-05-05T02:21:58.232Z,9.40
2023-05-05T02:22:58.177Z,9.37
2023-05-05T02:23:58.150Z,9.37
2023-05-05T02:24:58.147Z,9.37
2023-05-05T02:25:58.128Z,9.34
2023-05-05T02:26:58.122Z,9.34
2023-05-05T02:27:58.111Z,9.32
2023-05-05T02:28:58.084Z,9.32
2023-05-05T02:29:58.081Z,9.31
2023-05-05T02:30:58.123Z,9.31
2023-05-05T02:31:58.074Z,9.29
2023-05-05T02:32:58.060Z,9.29
2023-05-05T02:33:58.049Z,9.29
2023-05-05T02:34:58.013Z,9.28
2023-05-05T02:35:58.128Z,9.26
2023-05-05T02:36:58.504Z,9.25
2023-05-05T02:37:57.972Z,9.25
2023-05-05T02:38:57.981Z,9.26
2023-05-05T02:39:57.984Z,9.26
2023-05-05T02:40:57.960Z,9.25
2023-05-05T02:41:57.947Z,9.25
2023-05-05T02:42:57.926Z,9.25
2023-05-05T02:43:57.906Z,9.23
2023-05-05T02:44:57.879Z,9.25
2023-05-05T02:45:57.883Z,9.23
2023-05-05T02:46:57.860Z,9.22
2023-05-05T02:47:57.914Z,9.22
2023-05-05T02:48:57.820Z,9.22
2023-05-05T02:49:57.818Z,9.19
2023-05-05T02:50:57.833Z,9.19
2023-05-05T02:51:57.814Z,9.18
2023-05-05T02:52:57.858Z,9.16
2023-05-05T02:53:57.781Z,9.18
2023-05-05T02:54:57.756Z,9.16
2023-05-05T02:55:57.803Z,9.14
2023-05-05T02:56:57.763Z,9.14
2023-05-05T02:57:57.722Z,9.14
2023-05-05T02:58:57.719Z,9.13
2023-05-05T02:59:57.753Z,9.13
2023-05-05T03:00:57.702Z,9.11
2023-05-05T03:01:57.749Z,9.11
2023-05-05T03:02:57.774Z,9.10
2023-05-05T03:03:57.695Z,9.10
2023-05-05T03:04:57.664Z,9.10
2023-05-05T03:05:57.631Z,9.11
2023-05-05T03:06:57.618Z,9.08
2023-05-05T03:07:57.613Z,9.06
2023-05-05T03:08:57.609Z,9.04
2023-05-05T03:09:57.580Z,9.03
2023-05-05T03:10:57.546Z,9.03
2023-05-05T03:11:57.600Z,9.03
2023-05-05T03:12:57.617Z,9.03
2023-05-05T03:13:57.620Z,9.02
2023-05-05T03:14:57.509Z,9.00
2023-05-05T03:15:57.515Z,8.99
2023-05-05T03:16:57.484Z,9.00
2023-05-05T03:17:57.470Z,8.99
2023-05-05T03:18:57.446Z,8.99
2023-05-05T03:19:57.426Z,8.97
2023-05-05T03:20:57.409Z,8.94
2023-05-05T03:21:57.422Z,8.97
2023-05-05T03:22:57.418Z,8.95
2023-05-05T03:23:57.414Z,8.94
2023-05-05T03:24:57.362Z,8.92
2023-05-05T03:25:57.366Z,8.91
2023-05-05T03:26:57.351Z,8.92
2023-05-05T03:27:57.339Z,8.92
2023-05-05T03:28:57.328Z,8.91
2023-05-05T03:29:57.304Z,8.89
2023-05-05T03:30:57.308Z,8.89
2023-05-05T03:31:57.321Z,8.89
2023-05-05T03:32:57.281Z,8.89
2023-05-05T03:33:57.314Z,8.89
2023-05-05T03:34:57.243Z,8.89
2023-05-05T03:35:57.236Z,8.88
2023-05-05T03:36:57.239Z,8.89
2023-05-05T03:37:57.207Z,8.89
2023-05-05T03:38:57.194Z,8.88
2023-05-05T03:39:57.192Z,8.89
2023-05-05T03:40:57.165Z,8.88
2023-05-05T03:41:57.165Z,8.87
2023-05-05T03:42:57.132Z,8.87
2023-05-05T03:43:57.126Z,8.88
2023-05-05T03:44:57.149Z,8.87
2023-05-05T03:45:57.196Z,8.88
2023-05-05T03:46:57.119Z,8.87
2023-05-05T03:47:57.117Z,8.88
2023-05-05T03:48:57.198Z,8.89
2023-05-05T03:49:57.053Z,8.87
2023-05-05T03:50:57.051Z,8.87
2023-05-05T03:51:57.040Z,8.88
2023-05-05T03:52:57.008Z,8.87
2023-05-05T03:53:57.005Z,8.87
2023-05-05T03:54:56.984Z,8.85
2023-05-05T03:55:57.001Z,8.87
2023-05-05T03:56:56.947Z,8.87
2023-05-05T03:57:56.950Z,8.87
2023-05-05T03:58:56.923Z,8.87
2023-05-05T03:59:56.976Z,8.87
2023-05-05T04:00:56.951Z,8.85
2023-05-05T04:01:56.923Z,8.87
2023-05-05T04:02:56.945Z,8.84
2023-05-05T04:03:56.963Z,8.87
2023-05-05T04:04:56.866Z,8.87
2023-05-05T04:05:56.845Z,8.87
2023-05-05T04:06:56.837Z,8.85
2023-05-05T04:07:56.868Z,8.87
2023-05-05T04:08:56.800Z,8.87
2023-05-05T04:09:56.820Z,8.88
2023-05-05T04:10:56.790Z,8.88
2023-05-05T04:11:56.785Z,8.88
2023-05-05T04:12:56.837Z,8.88
2023-05-05T04:13:56.761Z,8.88
2023-05-05T04:14:56.742Z,8.88
2023-05-05T04:15:56.792Z,8.88
2023-05-05T04:16:56.730Z,8.88
2023-05-05T04:17:56.740Z,8.88
2023-05-05T04:18:56.690Z,8.88
2023-05-05T04:19:56.683Z,8.88
2023-05-05T04:20:56.640Z,8.89
2023-05-05T04:21:56.671Z,8.88
2023-05-05T04:22:56.639Z,8.89
2023-05-05T04:23:56.644Z,8.89
2023-05-05T04:24:56.602Z,8.88
2023-05-05T04:25:56.594Z,8.91
2023-05-05T04:26:56.572Z,8.89
2023-05-05T04:27:56.575Z,8.91
2023-05-05T04:28:56.564Z,8.91
2023-05-05T04:29:56.538Z,8.91
2023-05-05T04:30:56.538Z,8.91
2023-05-05T04:31:56.530Z,8.89
2023-05-05T04:32:56.649Z,8.89
2023-05-05T04:33:56.494Z,8.91
2023-05-05T04:34:56.492Z,8.92
2023-05-05T04:35:56.493Z,8.91
2023-05-05T04:36:56.460Z,8.92
2023-05-05T04:37:56.481Z,8.94
2023-05-05T04:38:56.525Z,8.94
2023-05-05T04:39:56.478Z,8.94
2023-05-05T04:40:56.442Z,8.94
2023-05-05T04:41:56.447Z,8.95
2023-05-05T04:42:56.451Z,8.95
2023-05-05T04:43:56.391Z,8.94
2023-05-05T04:44:56.341Z,8.94
2023-05-05T04:45:56.354Z,8.95
2023-05-05T04:46:56.364Z,8.95
2023-05-05T04:47:56.353Z,8.95
2023-05-05T04:48:56.290Z,8.97
2023-05-05T04:49:56.298Z,8.97
2023-05-05T04:50:56.258Z,8.97
2023-05-05T04:51:56.281Z,8.97
2023-05-05T04:52:56.254Z,8.99
2023-05-05T04:53:56.239Z,8.99
2023-05-05T04:54:56.244Z,8.97
2023-05-05T04:55:56.210Z,8.97
2023-05-05T04:56:56.229Z,9.00
2023-05-05T04:57:56.221Z,9.00
2023-05-05T04:58:56.186Z,8.99
2023-05-05T04:59:56.182Z,8.99
2023-05-05T05:00:56.165Z,9.02
2023-05-05T05:01:56.213Z,9.03
2023-05-05T05:02:56.179Z,9.06
2023-05-05T05:03:56.191Z,9.11
2023-05-05T05:04:56.130Z,9.16
2023-05-05T05:05:56.132Z,9.22
2023-05-05T05:06:58.947Z,9.25
2023-05-05T05:07:56.048Z,9.28
2023-05-05T05:08:56.047Z,9.29
2023-05-05T05:09:56.031Z,9.34
2023-05-05T05:10:56.058Z,9.36
2023-05-05T05:11:55.993Z,9.43
2023-05-05T05:12:56.065Z,9.46
2023-05-05T05:13:55.974Z,9.50
2023-05-05T05:14:55.968Z,9.56
2023-05-05T05:15:56.004Z,9.61
2023-05-05T05:16:55.962Z,9.69
2023-05-05T05:17:55.966Z,9.76
2023-05-05T05:18:55.916Z,9.82
2023-05-05T05:19:55.912Z,9.92
2023-05-05T05:20:55.874Z,9.97
2023-05-05T05:21:55.870Z,10.07
2023-05-05T05:22:55.870Z,10.15
2023-05-05T05:23:55.862Z,10.20
2023-05-05T05:24:55.849Z,10.26
2023-05-05T05:25:55.812Z,10.37
2023-05-05T05:26:55.815Z,10.44
2023-05-05T05:28:58.490Z,10.61
2023-05-05T05:29:55.761Z,10.68
2023-05-05T05:30:55.741Z,10.75
2023-05-05T05:31:55.771Z,10.81
2023-05-05T05:32:55.758Z,10.89
2023-05-05T05:33:55.729Z,10.96
2023-05-05T05:34:55.711Z,11.05
2023-05-05T05:35:55.686Z,11.14
2023-05-05T05:36:55.652Z,11.18
2023-05-05T05:37:55.667Z,11.25
2023-05-05T05:38:55.650Z,11.27
2023-05-05T05:39:55.620Z,11.30
2023-05-05T05:40:55.611Z,11.36
2023-05-05T05:41:55.613Z,11.41
2023-05-05T05:42:55.592Z,11.47
2023-05-05T05:43:55.616Z,11.55
2023-05-05T05:44:55.582Z,11.65
2023-05-05T05:45:55.577Z,11.73
2023-05-05T05:46:55.527Z,11.86
2023-05-05T05:47:55.621Z,11.99
2023-05-05T05:48:55.521Z,12.07
2023-05-05T05:49:55.501Z,12.18
2023-05-05T05:50:55.469Z,12.31
2023-05-05T05:51:55.495Z,12.39
2023-05-05T05:52:55.487Z,12.53
2023-05-05T05:53:57.467Z,12.64
2023-05-05T05:54:55.436Z,12.73
2023-05-05T05:55:55.476Z,12.83
2023-05-05T05:56:55.416Z,12.94
2023-05-05T05:57:55.405Z,13.05
2023-05-05T05:58:55.398Z,13.18
2023-05-05T05:59:55.373Z,13.30
2023-05-05T06:00:55.363Z,13.42
2023-05-05T06:01:55.361Z,13.56
2023-05-05T06:02:55.409Z,13.68
2023-05-05T06:03:55.491Z,13.83
2023-05-05T06:04:55.296Z,13.95
2023-05-05T06:05:55.309Z,14.08
2023-05-05T06:06:55.333Z,14.23
2023-05-05T06:07:55.272Z,14.37
2023-05-05T06:08:55.260Z,14.50
2023-05-05T06:09:55.253Z,14.68
2023-05-05T06:10:55.238Z,14.84
2023-05-05T06:11:55.259Z,14.97
2023-05-05T06:12:55.236Z,15.04
2023-05-05T06:13:55.227Z,15.10
2023-05-05T06:14:55.205Z,15.21
2023-05-05T06:15:55.289Z,15.36
2023-05-05T06:16:55.164Z,15.49
2023-05-05T06:17:55.166Z,15.61
2023-05-05T06:18:55.176Z,15.75
2023-05-05T06:19:55.147Z,15.79
2023-05-05T06:20:55.109Z,15.80
2023-05-05T06:21:55.175Z,15.88
2023-05-05T06:22:55.140Z,16.04
2023-05-05T06:23:55.069Z,16.17
2023-05-05T06:24:55.079Z,16.35
2023-05-05T06:25:55.068Z,16.47
2023-05-05T06:26:55.023Z,16.58
2023-05-05T06:27:55.048Z,16.69
2023-05-05T06:28:55.007Z,16.84
2023-05-05T06:29:55.020Z,16.99
2023-05-05T06:30:54.967Z,17.16
2023-05-05T06:31:54.993Z,17.16
2023-05-05T06:32:54.953Z,17.46
2023-05-05T06:33:54.939Z,17.65
2023-05-05T06:34:54.919Z,17.65
2023-05-05T06:35:54.898Z,17.87
2023-05-05T06:36:55.016Z,17.89
2023-05-05T06:37:54.863Z,18.16
2023-05-05T06:38:54.864Z,18.28
2023-05-05T06:39:54.857Z,18.44
2023-05-05T06:40:54.834Z,18.44
2023-05-05T06:41:54.813Z,18.71
2023-05-05T06:42:54.813Z,18.88
2023-05-05T06:43:54.791Z,19.00
2023-05-05T06:44:54.774Z,19.00
2023-05-05T06:45:54.745Z,19.27
2023-05-05T06:46:54.768Z,19.40
2023-05-05T06:47:54.783Z,19.56
2023-05-05T06:48:54.732Z,19.71
2023-05-05T06:49:54.702Z,19.89
2023-05-05T06:50:54.696Z,20.04
2023-05-05T06:51:54.678Z,20.24
2023-05-05T06:52:54.679Z,20.39
2023-05-05T06:53:54.730Z,20.55
2023-05-05T06:54:54.647Z,20.69
2023-05-05T06:55:54.636Z,20.69
2023-05-05T06:56:54.610Z,20.95
2023-05-05T06:57:54.604Z,20.99
2023-05-05T06:58:54.602Z,20.97
2023-05-05T06:59:54.568Z,21.15
2023-05-05T07:00:54.643Z,21.24
2023-05-05T07:01:54.559Z,21.33
2023-05-05T07:02:54.622Z,21.40
2023-05-05T07:03:54.535Z,21.57
2023-05-05T07:04:54.532Z,21.72
2023-05-05T07:05:54.508Z,21.72
2023-05-05T07:06:54.521Z,22.04
2023-05-05T07:07:54.592Z,22.07
2023-05-05T07:08:54.486Z,22.11
2023-05-05T07:09:54.455Z,22.14
2023-05-05T07:10:54.462Z,22.15
2023-05-05T07:11:54.443Z,22.22
2023-05-05T07:12:54.464Z,22.22
2023-05-05T07:13:54.409Z,22.41
2023-05-05T07:14:54.401Z,22.41
2023-05-05T07:15:54.386Z,22.43
2023-05-05T07:16:54.497Z,22.38
2023-05-05T07:17:54.443Z,22.32
2023-05-05T07:18:54.353Z,22.23
2023-05-05T07:19:54.313Z,22.28
2023-05-05T07:20:54.501Z,22.45
2023-05-05T07:21:54.279Z,22.69
2023-05-05T07:22:54.278Z,22.70
2023-05-05T07:23:54.268Z,23.18
2023-05-05T07:24:54.258Z,23.37
2023-05-05T07:25:54.273Z,23.51
2023-05-05T07:26:54.231Z,23.68
2023-05-05T07:27:54.208Z,23.80
2023-05-05T07:28:54.208Z,23.80
2023-05-05T07:29:54.214Z,23.81
2023-05-05T07:30:54.222Z,23.83
2023-05-05T07:31:54.186Z,23.88
2023-05-05T07:32:54.173Z,24.01
2023-05-05T07:33:54.132Z,24.18
2023-05-05T07:34:54.154Z,24.17
2023-05-05T07:35:54.139Z,24.65
2023-05-05T07:36:54.102Z,24.84
2023-05-05T07:37:54.081Z,24.84
2023-05-05T07:38:54.078Z,24.95
2023-05-05T07:39:54.131Z,25.06
2023-05-05T07:40:54.037Z,25.14
2023-05-05T07:41:54.029Z,25.17
2023-05-05T07:42:54.040Z,25.17
2023-05-05T07:43:54.032Z,25.18
2023-05-05T07:44:54.006Z,25.08
2023-05-05T07:45:54.016Z,24.85
2023-05-05T07:46:54.073Z,24.70
2023-05-05T07:47:54.002Z,24.60
2023-05-05T07:48:53.961Z,24.63
2023-05-05T07:49:53.936Z,24.65
2023-05-05T07:50:53.907Z,24.63
2023-05-05T07:51:53.896Z,24.63
2023-05-05T07:52:59.295Z,24.85
2023-05-05T07:53:54.903Z,25.07
2023-05-05T07:54:53.863Z,25.28
2023-05-05T07:55:53.880Z,25.51
2023-05-05T07:56:53.849Z,25.73
2023-05-05T07:57:53.849Z,25.95
2023-05-05T07:58:53.857Z,25.95
2023-05-05T07:59:53.816Z,26.36
2023-05-05T08:00:53.835Z,26.55
2023-05-05T08:01:54.932Z,26.83
2023-05-05T08:02:53.829Z,27.10
2023-05-05T08:03:53.833Z,27.10
2023-05-05T08:04:53.741Z,27.40
2023-05-05T08:05:53.739Z,27.39
2023-05-05T08:06:53.736Z,27.35
2023-05-05T08:07:53.757Z,27.29
2023-05-05T08:08:53.693Z,27.22
2023-05-05T08:09:53.668Z,27.18
2023-05-05T08:10:53.652Z,27.08
2023-05-05T08:11:53.736Z,27.08
2023-05-05T08:12:53.701Z,26.99
2023-05-05T08:13:53.626Z,27.12
2023-05-05T08:14:53.605Z,27.32
2023-05-05T08:15:53.650Z,27.52
2023-05-05T08:16:53.622Z,27.73
2023-05-05T08:17:53.586Z,27.92
2023-05-05T08:18:53.560Z,28.12
2023-05-05T08:19:53.563Z,28.35
2023-05-05T08:20:53.529Z,28.60
2023-05-05T08:21:53.521Z,28.81
2023-05-05T08:22:53.513Z,28.82
2023-05-05T08:23:53.500Z,29.24
2023-05-05T08:24:53.488Z,29.45
2023-05-05T08:25:53.479Z,29.59
2023-05-05T08:26:53.475Z,29.63
2023-05-05T08:27:53.444Z,29.61
2023-05-05T08:28:53.447Z,29.54
2023-05-05T08:29:53.418Z,29.53
2023-05-05T08:30:53.544Z,29.54
2023-05-05T08:31:53.419Z,29.53
2023-05-05T08:32:53.438Z,29.32
2023-05-05T08:33:53.345Z,29.17
2023-05-05T08:34:53.454Z,29.02
2023-05-05T08:35:53.355Z,28.85
2023-05-05T08:36:53.331Z,28.72
2023-05-05T08:37:53.333Z,28.72
2023-05-05T08:38:53.313Z,28.56
2023-05-05T08:39:53.295Z,28.48
2023-05-05T08:40:53.277Z,28.37
2023-05-05T08:41:53.266Z,28.25
2023-05-05T08:42:53.261Z,28.22
2023-05-05T08:43:53.245Z,28.19
2023-05-05T08:44:53.242Z,28.19
2023-05-05T08:45:53.221Z,28.35
2023-05-05T08:46:53.211Z,28.85
2023-05-05T08:47:53.209Z,29.10
2023-05-05T08:48:53.168Z,29.38
2023-05-05T08:49:53.148Z,29.38
2023-05-05T08:50:53.122Z,29.88
2023-05-05T08:51:53.116Z,30.09
2023-05-05T08:52:53.117Z,30.28
2023-05-05T08:53:53.103Z,30.39
2023-05-05T08:54:53.104Z,30.39
2023-05-05T08:55:53.067Z,30.53
2023-05-05T08:56:53.046Z,30.69
2023-05-05T08:57:53.073Z,31.05
2023-05-05T08:58:53.037Z,31.03
2023-05-05T08:59:53.014Z,31.09
2023-05-05T09:00:53.004Z,31.14
2023-05-05T09:01:52.977Z,31.17
2023-05-05T09:02:53.072Z,31.07
2023-05-05T09:03:52.975Z,31.07
2023-05-05T09:04:52.946Z,31.07
2023-05-05T09:05:52.953Z,31.14
2023-05-05T09:06:52.938Z,31.15
2023-05-05T09:07:52.925Z,31.27
2023-05-05T09:08:52.898Z,31.27
2023-05-05T09:09:52.866Z,31.39
2023-05-05T09:10:52.888Z,31.37
2023-05-05T09:11:52.847Z,31.52
2023-05-05T09:12:52.906Z,31.51
2023-05-05T09:13:52.820Z,31.55
2023-05-05T09:14:52.808Z,31.62
2023-05-05T09:15:52.812Z,31.59
2023-05-05T09:16:52.815Z,31.56
2023-05-05T09:17:52.852Z,31.51
2023-05-05T09:18:52.784Z,31.39
2023-05-05T09:19:52.761Z,31.39
2023-05-05T09:20:52.750Z,31.15
2023-05-05T09:21:52.766Z,31.17
2023-05-05T09:22:52.748Z,30.92
2023-05-05T09:23:52.704Z,30.91
2023-05-05T09:24:52.711Z,30.57
2023-05-05T09:25:52.729Z,30.57
2023-05-05T09:26:52.690Z,30.21
2023-05-05T09:27:52.651Z,30.06
2023-05-05T09:28:52.657Z,30.05
2023-05-05T09:29:52.633Z,29.91
2023-05-05T09:30:52.671Z,29.76
2023-05-05T09:31:52.601Z,29.78
2023-05-05T09:32:52.639Z,29.78
2023-05-05T09:33:52.577Z,29.82
2023-05-05T09:34:52.571Z,30.00
2023-05-05T09:35:52.570Z,30.18
2023-05-05T09:36:52.558Z,30.21
2023-05-05T09:37:52.547Z,30.46
2023-05-05T09:38:52.496Z,30.46
2023-05-05T09:39:52.507Z,30.68
2023-05-05T09:40:52.518Z,30.66
2023-05-05T09:41:52.486Z,30.70
2023-05-05T09:42:52.457Z,30.69
2023-05-05T09:43:52.493Z,30.69
2023-05-05T09:44:52.440Z,30.55
2023-05-05T09:45:52.455Z,30.54
2023-05-05T09:46:52.481Z,30.35
2023-05-05T09:47:56.514Z,30.25
2023-05-05T09:48:53.367Z,30.13
2023-05-05T09:49:52.376Z,30.06
2023-05-05T09:50:52.381Z,29.97
2023-05-05T09:51:52.348Z,29.90
2023-05-05T09:52:52.333Z,29.84
2023-05-05T09:53:52.326Z,29.86
2023-05-05T09:54:52.332Z,29.78
2023-05-05T09:55:52.296Z,29.78
2023-05-05T09:56:52.285Z,29.73
2023-05-05T09:57:52.265Z,29.73
2023-05-05T09:58:52.243Z,29.61
2023-05-05T09:59:52.274Z,29.61
2023-05-05T10:00:52.234Z,29.38
2023-05-05T10:01:52.270Z,29.24
2023-05-05T10:02:52.204Z,29.17
2023-05-05T10:03:52.215Z,29.08
2023-05-05T10:04:52.314Z,28.98
2023-05-05T10:05:52.149Z,28.98
2023-05-05T10:06:52.153Z,28.91
2023-05-05T10:07:52.126Z,28.79
2023-05-05T10:08:52.144Z,28.82
2023-05-05T10:09:52.114Z,28.82
2023-05-05T10:10:52.093Z,28.79
2023-05-05T10:11:52.085Z,28.76
2023-05-05T10:12:52.123Z,28.75
2023-05-05T10:13:52.078Z,28.72
2023-05-05T10:14:52.027Z,28.66
2023-05-05T10:15:52.147Z,28.59
2023-05-05T10:16:52.045Z,28.56
2023-05-05T10:18:05.992Z,28.56
2023-05-05T10:18:53.007Z,28.51
2023-05-05T10:19:51.978Z,28.47
2023-05-05T10:20:51.986Z,28.45
2023-05-05T10:21:51.948Z,28.41
2023-05-05T10:22:51.982Z,28.39
2023-05-05T10:23:51.942Z,28.41
2023-05-05T10:24:51.878Z,28.42
2023-05-05T10:25:51.873Z,28.38
2023-05-05T10:26:51.861Z,28.37
2023-05-05T10:27:51.853Z,28.30
2023-05-05T10:28:51.859Z,28.30
2023-05-05T10:29:51.859Z,28.27
2023-05-05T10:30:51.866Z,28.22
2023-05-05T10:31:51.885Z,28.10
2023-05-05T10:32:59.895Z,28.08
2023-05-05T10:33:52.925Z,28.07
2023-05-05T10:34:51.779Z,28.08
2023-05-05T10:35:51.768Z,28.10
2023-05-05T10:36:51.787Z,28.11
2023-05-05T10:37:51.738Z,28.08
2023-05-05T10:38:51.727Z,28.08
2023-05-05T10:39:51.705Z,28.01
2023-05-05T10:40:51.717Z,28.01
2023-05-05T10:41:51.704Z,27.86
2023-05-05T10:42:51.680Z,27.75
2023-05-05T10:43:51.668Z,27.78
2023-05-05T10:44:51.655Z,27.59
2023-05-05T10:45:51.725Z,27.51
2023-05-05T10:46:51.647Z,27.54
2023-05-05T10:47:51.656Z,27.42
2023-05-05T10:48:51.624Z,27.37
2023-05-05T10:49:51.585Z,27.37
2023-05-05T10:50:51.590Z,27.26
2023-05-05T10:51:51.566Z,27.17
2023-05-05T10:52:51.556Z,27.12
2023-05-05T10:53:51.613Z,27.05
2023-05-05T10:54:51.520Z,27.07
2023-05-05T10:55:51.506Z,26.95
2023-05-05T10:56:51.464Z,26.90
2023-05-05T10:57:51.477Z,26.84
2023-05-05T10:58:59.001Z,26.73
2023-05-05T10:59:52.474Z,26.62
2023-05-05T11:00:51.500Z,26.51
2023-05-05T11:01:51.411Z,26.38
2023-05-05T11:02:51.510Z,26.28
2023-05-05T11:03:51.418Z,26.28
2023-05-05T11:04:51.385Z,26.06
2023-05-05T11:05:51.369Z,25.99
2023-05-05T11:06:51.355Z,25.91
2023-05-05T11:07:51.388Z,25.81
2023-05-05T11:08:51.318Z,25.70
2023-05-05T11:09:51.325Z,25.63
2023-05-05T11:10:51.298Z,25.55
2023-05-05T11:11:51.282Z,25.50
2023-05-05T11:12:51.317Z,25.43
2023-05-05T11:13:51.312Z,25.36
2023-05-05T11:14:51.270Z,25.36
2023-05-05T11:15:51.242Z,25.29
2023-05-05T11:16:51.237Z,25.16
2023-05-05T11:17:51.274Z,25.17
2023-05-05T11:18:51.213Z,25.03
2023-05-05T11:19:51.196Z,24.95
2023-05-05T11:20:51.189Z,24.95
2023-05-05T11:21:51.152Z,24.81
2023-05-05T11:22:51.162Z,24.74
2023-05-05T11:23:51.146Z,24.69
2023-05-05T11:24:51.132Z,24.61
2023-05-05T11:25:51.102Z,24.54
2023-05-05T11:26:51.092Z,24.48
2023-05-05T11:27:51.114Z,24.42
2023-05-05T11:28:51.072Z,24.33
2023-05-05T11:29:52.128Z,24.28
2023-05-05T11:30:51.089Z,24.26
2023-05-05T11:31:51.047Z,24.21
2023-05-05T11:32:51.059Z,24.18
2023-05-05T11:33:51.031Z,24.17
2023-05-05T11:34:51.069Z,24.16
2023-05-05T11:35:50.950Z,24.14
2023-05-05T11:36:50.950Z,24.16
2023-05-05T11:37:50.976Z,24.14
2023-05-05T11:38:50.928Z,24.11
2023-05-05T11:39:51.053Z,24.08
2023-05-05T11:40:50.905Z,24.08
2023-05-05T11:41:50.919Z,24.03
2023-05-05T11:42:50.899Z,23.96
2023-05-05T11:43:50.865Z,23.95
2023-05-05T11:44:50.833Z,23.92
2023-05-05T11:45:50.853Z,23.92
2023-05-05T11:46:50.843Z,23.91
2023-05-05T11:47:50.884Z,23.86
2023-05-05T11:48:50.779Z,23.83
2023-05-05T11:49:50.787Z,23.76
2023-05-05T11:50:50.804Z,23.73
2023-05-05T11:51:50.766Z,23.73
2023-05-05T11:52:50.753Z,23.69
2023-05-05T11:53:50.746Z,23.69
2023-05-05T11:54:50.812Z,23.65
2023-05-05T11:55:50.719Z,23.65
2023-05-05T11:56:50.727Z,23.63
2023-05-05T11:57:50.704Z,23.62
2023-05-05T11:58:50.701Z,23.62
2023-05-05T11:59:50.662Z,23.61
2023-05-05T12:00:50.634Z,23.61
2023-05-05T12:01:50.634Z,23.61
2023-05-05T12:02:50.683Z,23.61
2023-05-05T12:03:50.744Z,23.59
2023-05-05T12:04:50.767Z,23.61
2023-05-05T12:05:50.606Z,23.62
2023-05-05T12:06:50.776Z,23.62
2023-05-05T12:07:50.554Z,23.62
2023-05-05T12:08:50.534Z,23.62
2023-05-05T12:09:50.590Z,23.62
2023-05-05T12:10:50.508Z,23.63
2023-05-05T12:11:50.544Z,23.63
2023-05-05T12:12:50.801Z,23.62
2023-05-05T12:13:50.489Z,23.62
2023-05-05T12:14:50.446Z,23.62
2023-05-05T12:15:50.441Z,23.62
2023-05-05T12:16:50.406Z,23.59
2023-05-05T12:17:50.440Z,23.59
2023-05-05T12:18:50.510Z,23.58
2023-05-05T12:19:50.422Z,23.55
2023-05-05T12:20:50.371Z,23.56
2023-05-05T12:21:50.372Z,23.51
2023-05-05T12:22:50.435Z,23.48
2023-05-05T12:23:50.398Z,23.44
2023-05-05T12:24:50.351Z,23.41
2023-05-05T12:25:50.311Z,23.41
2023-05-05T12:26:50.340Z,23.40
2023-05-05T12:27:50.302Z,23.41
2023-05-05T12:28:50.432Z,23.40
2023-05-05T12:29:50.284Z,23.39
2023-05-05T12:30:50.267Z,23.37
2023-05-05T12:31:50.253Z,23.34
2023-05-05T12:32:50.267Z,23.32
2023-05-05T12:33:50.222Z,23.31
2023-05-05T12:34:50.285Z,23.28
2023-05-05T12:35:50.254Z,23.28
2023-05-05T12:36:50.168Z,23.28
2023-05-05T12:37:50.158Z,23.25
2023-05-05T12:38:50.162Z,23.21
2023-05-05T12:39:50.127Z,23.23
2023-05-05T12:40:50.123Z,23.20
2023-05-05T12:41:50.150Z,23.18
2023-05-05T12:42:50.112Z,23.15
2023-05-05T12:43:50.099Z,23.13
2023-05-05T12:44:50.050Z,23.10
2023-05-05T12:45:50.109Z,23.09
2023-05-05T12:46:50.024Z,23.06
2023-05-05T12:47:50.052Z,23.03
2023-05-05T12:48:50.016Z,22.99
2023-05-05T12:49:50.107Z,22.98
2023-05-05T12:50:49.988Z,22.96
2023-05-05T12:51:49.989Z,22.94
2023-05-05T12:52:49.960Z,22.91
2023-05-05T12:53:49.940Z,22.87
2023-05-05T12:54:49.923Z,22.83
2023-05-05T12:55:49.897Z,22.81
2023-05-05T12:56:49.947Z,22.78
2023-05-05T12:57:49.904Z,22.75
2023-05-05T12:58:49.954Z,22.72
2023-05-05T12:59:49.860Z,22.69
2023-05-05T13:00:49.928Z,22.66